Time;durP1;ratioP1;P1;durP2;ratioP2;P2;SDS_P1;SDS_P2;PMS_P1;PMS_P2;Temp;Humidity;BMP_temperature;BMP_pressure;BME280_temperature;BME280_humidity;BME280_pressure;Samples;Min_cycle;Max_cycle;Signal;HPM_P1;HPM_P2
2023/12/12 00:01:05;;;;;;;22.60;9.20;;;;;;;2.10;100.00;98353.69;105746;1254;72711;-62
2023/12/12 00:03:54;;;;;;;25.00;9.70;;;;;;;2.10;100.00;98356.14;105758;1257;68446;-62
2023/12/12 00:06:42;;;;;;;24.60;10.40;;;;;;;2.14;100.00;98359.51;105747;1251;74343;-62
2023/12/12 00:09:30;;;;;;;23.20;10.10;;;;;;;2.14;100.00;98362.64;105914;1254;59246;-62
2023/12/12 00:12:19;;;;;;;27.00;11.40;;;;;;;2.13;100.00;98364.63;105919;1259;60003;-63
2023/12/12 00:15:08;;;;;;;25.90;10.70;;;;;;;2.10;100.00;98360.45;105683;1254;73419;-63
2023/12/12 00:17:56;;;;;;;27.40;12.50;;;;;;;2.07;100.00;98362.45;107820;1251;67353;-62
2023/12/12 00:20:45;;;;;;;27.70;12.00;;;;;;;2.03;100.00;98363.44;107957;1256;73013;-65
2023/12/12 00:23:34;;;;;;;28.50;11.80;;;;;;;2.03;100.00;98361.87;108257;1259;59348;-63
2023/12/12 00:26:22;;;;;;;23.40;11.20;;;;;;;2.01;100.00;98362.67;107724;1257;60484;-63
2023/12/12 00:29:10;;;;;;;23.80;10.90;;;;;;;2.02;100.00;98368.36;103208;1256;1003716;-61
2023/12/12 00:31:58;;;;;;;26.50;11.30;;;;;;;2.02;100.00;98372.22;105497;1260;68532;-59
2023/12/12 00:34:46;;;;;;;24.50;10.30;;;;;;;2.02;100.00;98380.29;105362;1257;72524;-61
2023/12/12 00:37:34;;;;;;;24.80;10.50;;;;;;;2.02;100.00;98382.34;105339;1261;59301;-61
2023/12/12 00:40:23;;;;;;;21.50;10.20;;;;;;;2.06;100.00;98385.44;105867;1259;61752;-62
2023/12/12 00:43:12;;;;;;;24.60;9.90;;;;;;;2.11;100.00;98386.00;105680;1260;71689;-61
2023/12/12 00:46:00;;;;;;;21.10;9.60;;;;;;;2.11;100.00;98387.73;105618;1259;68216;-64
2023/12/12 00:48:48;;;;;;;23.20;9.10;;;;;;;2.12;100.00;98391.86;105541;1258;73560;-63
2023/12/12 00:51:37;;;;;;;21.90;10.10;;;;;;;2.12;100.00;98393.10;106066;1254;59857;-63
2023/12/12 00:54:24;;;;;;;22.00;9.70;;;;;;;2.10;100.00;98400.23;105738;1254;60055;-63
2023/12/12 00:57:13;;;;;;;22.20;10.30;;;;;;;2.09;100.00;98403.80;105594;1254;73618;-63
2023/12/12 01:00:01;;;;;;;22.00;10.90;;;;;;;2.09;100.00;98406.05;105596;1254;67406;-61
2023/12/12 01:02:50;;;;;;;22.20;10.00;;;;;;;2.11;100.00;98402.77;105609;1254;73142;-64
2023/12/12 01:05:38;;;;;;;24.10;10.00;;;;;;;2.14;100.00;98403.95;105957;1257;59336;-64
2023/12/12 01:08:26;;;;;;;23.00;9.70;;;;;;;2.16;100.00;98404.54;105603;1257;60422;-64
2023/12/12 01:11:16;;;;;;;21.50;10.10;;;;;;;2.18;100.00;98405.96;105540;1257;72943;-64
2023/12/12 01:14:03;;;;;;;22.90;10.60;;;;;;;2.20;100.00;98405.81;105856;1256;68912;-65
2023/12/12 01:16:52;;;;;;;21.60;10.40;;;;;;;2.24;100.00;98407.70;105843;1256;73256;-64
2023/12/12 01:19:40;;;;;;;23.30;9.90;;;;;;;2.26;100.00;98410.16;105886;1256;59244;-64
2023/12/12 01:22:29;;;;;;;23.40;10.30;;;;;;;2.27;100.00;98410.94;105675;1259;61554;-62
2023/12/12 01:25:17;;;;;;;24.40;9.90;;;;;;;2.30;100.00;98418.28;105650;1256;73025;-65
2023/12/12 01:28:06;;;;;;;26.70;11.30;;;;;;;2.28;100.00;98417.70;105707;1257;69170;-64
2023/12/12 01:30:54;;;;;;;23.30;9.80;;;;;;;2.27;100.00;98420.20;105923;1257;73159;-63
2023/12/12 01:33:44;;;;;;;20.60;9.50;;;;;;;2.27;100.00;98423.88;105792;1260;59368;-61
2023/12/12 01:36:32;;;;;;;21.10;9.20;;;;;;;2.26;100.00;98432.02;105585;1257;59266;-63
2023/12/12 01:39:20;;;;;;;17.20;8.10;;;;;;;2.24;100.00;98432.85;105613;1256;71626;-62
2023/12/12 01:42:09;;;;;;;18.70;8.60;;;;;;;2.23;100.00;98432.55;105659;1259;69449;-62
2023/12/12 01:44:58;;;;;;;18.10;6.80;;;;;;;2.23;100.00;98435.02;105986;1254;72623;-63
2023/12/12 01:47:46;;;;;;;16.10;7.10;;;;;;;2.22;100.00;98436.10;104848;1257;1002897;-61
2023/12/12 01:50:34;;;;;;;16.50;7.80;;;;;;;2.22;100.00;98437.00;105815;1254;59260;-64
2023/12/12 01:53:46;;;;;;;16.90;7.30;;;;;;;2.24;100.00;98441.60;105939;1254;71601;-62
2023/12/12 01:56:36;;;;;;;22.50;8.20;;;;;;;2.26;100.00;98444.42;105834;1257;69741;-64
2023/12/12 01:59:25;;;;;;;78.90;21.50;;;;;;;2.25;100.00;98447.63;105652;1254;73137;-64
2023/12/12 02:02:18;;;;;;;96.20;23.40;;;;;;;2.24;100.00;98447.91;105884;1256;59317;-64
2023/12/12 02:05:07;;;;;;;68.80;22.40;;;;;;;2.22;100.00;98448.38;105727;1256;60697;-66
2023/12/12 02:07:57;;;;;;;67.40;24.20;;;;;;;2.22;100.00;98446.48;105800;1258;72208;-63
2023/12/12 02:10:45;;;;;;;128.20;42.90;;;;;;;2.23;100.00;98446.92;105897;1254;67494;-62
2023/12/12 02:13:34;;;;;;;83.00;35.00;;;;;;;2.23;100.00;98449.73;105950;1266;74088;-64
2023/12/12 02:16:22;;;;;;;61.40;30.90;;;;;;;2.23;100.00;98443.25;105850;1267;59790;-63
2023/12/12 02:19:11;;;;;;;41.30;21.20;;;;;;;2.24;100.00;98452.84;105660;1257;59305;-64
2023/12/12 02:22:00;;;;;;;25.70;13.60;;;;;;;2.24;100.00;98458.58;105861;1254;73761;-62
2023/12/12 02:24:49;;;;;;;20.60;10.20;;;;;;;2.26;100.00;98460.55;105484;1257;67185;-62
2023/12/12 02:27:38;;;;;;;20.70;9.30;;;;;;;2.27;100.00;98462.92;105356;1260;74107;-62
2023/12/12 02:30:26;;;;;;;17.60;7.60;;;;;;;2.28;100.00;98470.55;105502;1262;59359;-62
2023/12/12 02:33:14;;;;;;;16.70;7.20;;;;;;;2.30;100.00;98474.59;105346;1260;59524;-62
2023/12/12 02:36:04;;;;;;;19.40;8.40;;;;;;;2.32;100.00;98474.33;105233;1258;71601;-63
2023/12/12 02:38:52;;;;;;;18.70;7.90;;;;;;;2.31;100.00;98472.29;105351;1257;68493;-63
2023/12/12 02:41:40;;;;;;;19.40;7.70;;;;;;;2.29;100.00;98475.36;105474;1257;71968;-63
2023/12/12 02:44:29;;;;;;;19.00;7.90;;;;;;;2.27;100.00;98479.02;105360;1261;59244;-63
2023/12/12 02:47:17;;;;;;;18.60;9.00;;;;;;;2.26;100.00;98479.98;105522;1261;60776;-64
2023/12/12 02:50:06;;;;;;;35.90;19.20;;;;;;;2.26;100.00;98482.41;105352;1260;73388;-64
2023/12/12 02:52:54;;;;;;;26.60;13.00;;;;;;;2.27;100.00;98484.60;105530;1262;69495;-63
2023/12/12 02:55:42;;;;;;;25.00;11.90;;;;;;;2.29;100.00;98488.17;105656;1258;74286;-63
2023/12/12 02:58:30;;;;;;;21.80;9.60;;;;;;;2.31;100.00;98484.88;105849;1257;59422;-63
2023/12/12 03:01:18;;;;;;;20.90;8.80;;;;;;;2.32;100.00;98486.35;105689;1257;60054;-63
2023/12/12 03:04:07;;;;;;;17.70;7.70;;;;;;;2.34;100.00;98485.20;105871;1256;73157;-64
2023/12/12 03:06:56;;;;;;;23.10;10.10;;;;;;;2.35;100.00;98485.81;105889;1255;69435;-62
2023/12/12 03:09:44;;;;;;;26.50;12.30;;;;;;;2.36;100.00;98484.48;107091;1253;72622;-64
2023/12/12 03:12:33;;;;;;;27.20;13.90;;;;;;;2.38;100.00;98487.52;107256;1254;60306;-63
2023/12/12 03:15:21;;;;;;;23.40;13.20;;;;;;;2.40;100.00;98488.12;107428;1253;59584;-61
2023/12/12 03:18:10;;;;;;;20.80;11.30;;;;;;;2.39;100.00;98486.61;106253;1256;71507;-63
2023/12/12 03:21:00;;;;;;;19.00;9.50;;;;;;;2.40;100.00;98493.73;105171;1254;1002960;-65
2023/12/12 03:23:48;;;;;;;17.00;8.90;;;;;;;2.42;100.00;98499.33;105901;1257;72380;-63
2023/12/12 03:26:37;;;;;;;18.20;9.00;;;;;;;2.41;100.00;98503.78;105821;1258;59334;-63
2023/12/12 03:29:25;;;;;;;17.50;8.20;;;;;;;2.41;100.00;98506.11;105761;1259;59739;-61
2023/12/12 03:32:17;;;;;;;17.50;8.60;;;;;;;2.43;100.00;98511.16;105089;1256;1002965;-62
2023/12/12 03:35:06;;;;;;;15.90;7.30;;;;;;;2.46;100.00;98514.69;106343;1254;67804;-62
2023/12/12 03:37:54;;;;;;;17.40;7.70;;;;;;;2.46;100.00;98512.41;105828;1267;73265;-63
2023/12/12 03:40:42;;;;;;;17.50;7.70;;;;;;;2.46;100.00;98513.92;105755;1258;59985;-63
2023/12/12 03:43:30;;;;;;;16.70;6.90;;;;;;;2.46;100.00;98515.19;105922;1257;60507;-61
2023/12/12 03:46:20;;;;;;;18.70;7.70;;;;;;;2.46;100.00;98516.75;105788;1255;72525;-61
2023/12/12 03:49:09;;;;;;;17.60;8.00;;;;;;;2.47;100.00;98518.25;105858;1256;67960;-65
2023/12/12 03:51:57;;;;;;;16.50;7.80;;;;;;;2.47;100.00;98523.83;106162;1253;74107;-62
2023/12/12 03:54:46;;;;;;;17.00;7.30;;;;;;;2.49;100.00;98527.40;105887;1261;59266;-64
2023/12/12 03:57:34;;;;;;;16.30;6.90;;;;;;;2.48;100.00;98529.39;105921;1257;59783;-63
2023/12/12 04:00:23;;;;;;;17.00;6.50;;;;;;;2.45;100.00;98529.80;106070;1251;73033;-62
2023/12/12 04:03:11;;;;;;;16.60;7.00;;;;;;;2.42;100.00;98529.83;105999;1251;67655;-61
2023/12/12 04:06:04;;;;;;;16.00;5.80;;;;;;;2.42;100.00;98535.61;105987;1251;223260;-62
2023/12/12 04:08:52;;;;;;;17.00;6.80;;;;;;;2.39;100.00;98536.48;105874;1257;59854;-64
2023/12/12 04:11:40;;;;;;;16.30;7.10;;;;;;;2.38;100.00;98538.09;106023;1251;60688;-62
2023/12/12 04:14:28;;;;;;;18.00;7.10;;;;;;;2.40;100.00;98539.03;105810;1256;73841;-63
2023/12/12 04:17:17;;;;;;;17.40;6.60;;;;;;;2.44;100.00;98537.23;105722;1256;67034;-64
2023/12/12 04:20:09;;;;;;;15.00;6.30;;;;;;;2.45;100.00;98537.68;105889;1251;74235;-64
2023/12/12 04:22:57;;;;;;;13.20;5.70;;;;;;;2.43;100.00;98539.00;105616;1257;59275;-65
2023/12/12 04:25:46;;;;;;;14.10;5.50;;;;;;;2.42;100.00;98538.71;106056;1256;59750;-65
2023/12/12 04:28:35;;;;;;;13.20;5.60;;;;;;;2.41;100.00;98540.91;105788;1251;72664;-62
2023/12/12 04:31:24;;;;;;;14.70;6.10;;;;;;;2.41;100.00;98543.89;105647;1258;68406;-62
2023/12/12 04:34:13;;;;;;;13.30;6.00;;;;;;;2.40;100.00;98541.83;105616;1257;73045;-63
2023/12/12 04:37:01;;;;;;;16.70;6.60;;;;;;;2.41;100.00;98542.99;105928;1251;60054;-64
2023/12/12 04:39:49;;;;;;;14.80;6.20;;;;;;;2.43;100.00;98544.25;105825;1253;61893;-65
2023/12/12 04:42:37;;;;;;;15.10;6.30;;;;;;;2.45;100.00;98544.13;105806;1254;72519;-63
2023/12/12 04:45:25;;;;;;;14.90;6.10;;;;;;;2.46;100.00;98547.38;106119;1256;67836;-62
2023/12/12 04:48:15;;;;;;;12.00;5.40;;;;;;;2.46;100.00;98546.33;106128;1254;71872;-63
2023/12/12 04:51:03;;;;;;;13.50;6.40;;;;;;;2.50;100.00;98548.19;105617;1260;59346;-62
2023/12/12 04:53:52;;;;;;;13.10;5.80;;;;;;;2.50;100.00;98549.38;105833;1254;61005;-64
2023/12/12 04:56:40;;;;;;;12.50;5.70;;;;;;;2.51;100.00;98547.88;105761;1253;72885;-63
2023/12/12 04:59:29;;;;;;;13.70;6.00;;;;;;;2.54;100.00;98549.42;106107;1257;67340;-63
2023/12/12 05:02:17;;;;;;;11.30;5.30;;;;;;;2.54;100.00;98552.27;106750;1254;70641;-64
2023/12/12 05:05:05;;;;;;;15.60;7.40;;;;;;;2.51;100.00;98554.36;105605;1252;60242;-65
2023/12/12 05:07:55;;;;;;;15.60;6.50;;;;;;;2.48;100.00;98552.35;105750;1257;59291;-65
2023/12/12 05:10:43;;;;;;;18.00;7.20;;;;;;;2.44;100.00;98551.70;105659;1253;72707;-64
2023/12/12 05:13:32;;;;;;;15.10;7.20;;;;;;;2.36;100.00;98547.56;106135;1251;67403;-63
2023/12/12 05:16:24;;;;;;;15.00;6.50;;;;;;;2.40;100.00;98560.09;105465;1255;72892;-65
2023/12/12 05:19:20;;;;;;;14.40;6.50;;;;;;;2.38;100.00;98564.04;105796;1252;59323;-66
2023/12/12 05:22:08;;;;;;;15.70;6.90;;;;;;;2.35;100.00;98561.63;105849;1257;60957;-65
2023/12/12 05:24:56;;;;;;;14.20;6.30;;;;;;;2.37;100.00;98571.98;105838;1256;71661;-67
2023/12/12 05:27:44;;;;;;;18.20;8.30;;;;;;;2.37;100.00;98576.34;105793;1257;69033;-66
2023/12/12 05:30:32;;;;;;;16.50;7.60;;;;;;;2.40;100.00;98579.80;105908;1251;72086;-65
2023/12/12 05:33:20;;;;;;;19.10;8.20;;;;;;;2.43;100.00;98582.95;105965;1257;59288;-64
2023/12/12 05:36:09;;;;;;;18.30;7.20;;;;;;;2.44;100.00;98584.83;105830;1257;61154;-65
2023/12/12 05:38:58;;;;;;;13.10;5.90;;;;;;;2.45;100.00;98583.17;105879;1254;73885;-67
2023/12/12 05:41:48;;;;;;;12.30;5.30;;;;;;;2.45;100.00;98578.06;105833;1257;65651;-65
2023/12/12 05:44:36;;;;;;;14.40;6.40;;;;;;;2.44;100.00;98579.92;105913;1254;71565;-66
2023/12/12 05:47:25;;;;;;;13.80;6.30;;;;;;;2.43;100.00;98579.99;105940;1256;59103;-64
2023/12/12 05:50:14;;;;;;;13.00;6.10;;;;;;;2.43;100.00;98581.05;105707;1257;60098;-64
2023/12/12 05:53:02;;;;;;;12.30;5.70;;;;;;;2.43;100.00;98581.08;105605;1254;72431;-64
2023/12/12 05:55:51;;;;;;;12.80;5.40;;;;;;;2.42;100.00;98584.81;105426;1254;68061;-64
2023/12/12 05:58:39;;;;;;;13.80;6.10;;;;;;;2.42;100.00;98588.48;107975;1254;72236;-63
2023/12/12 06:01:30;;;;;;;12.50;6.00;;;;;;;2.42;100.00;98598.41;107504;1251;59164;-66
2023/12/12 06:04:19;;;;;;;13.80;6.30;;;;;;;2.40;100.00;98597.02;108041;1251;60795;-67
2023/12/12 06:07:09;;;;;;;13.20;6.00;;;;;;;2.44;100.00;98600.75;108936;1254;72589;-68
2023/12/12 06:09:57;;;;;;;12.10;6.10;;;;;;;2.44;100.00;98601.82;106159;1254;66431;-63
2023/12/12 06:12:45;;;;;;;12.80;5.80;;;;;;;2.43;100.00;98598.16;105625;1256;73158;-63
2023/12/12 06:15:34;;;;;;;11.20;5.60;;;;;;;2.44;100.00;98600.73;105838;1255;59285;-64
2023/12/12 06:18:23;;;;;;;13.10;6.20;;;;;;;2.45;100.00;98609.43;105556;1258;60341;-65
2023/12/12 06:21:12;;;;;;;14.70;6.10;;;;;;;2.44;100.00;98617.41;105628;1251;73175;-63
2023/12/12 06:24:04;;;;;;;15.50;6.60;;;;;;;2.40;100.00;98620.80;105724;1255;68317;-64
2023/12/12 06:26:52;;;;;;;15.90;7.20;;;;;;;2.36;100.00;98625.91;105795;1254;73508;-61
2023/12/12 06:29:40;;;;;;;15.30;6.70;;;;;;;2.35;100.00;98629.17;105462;1261;60320;-63
2023/12/12 06:32:28;;;;;;;14.70;6.20;;;;;;;2.35;100.00;98635.45;105851;1257;61325;-65
2023/12/12 06:35:17;;;;;;;16.30;6.10;;;;;;;2.35;100.00;98638.08;106256;1251;72734;-64
2023/12/12 06:38:06;;;;;;;14.40;5.60;;;;;;;2.36;100.00;98634.52;106446;1254;67268;-64
2023/12/12 06:40:54;;;;;;;12.80;5.70;;;;;;;2.35;100.00;98636.51;106639;1253;73967;-67
2023/12/12 06:43:44;;;;;;;12.90;5.40;;;;;;;2.36;100.00;98638.70;106891;1251;60159;-67
2023/12/12 06:46:32;;;;;;;11.60;4.90;;;;;;;2.37;100.00;98642.12;106720;1251;61076;-65
2023/12/12 06:49:21;;;;;;;10.90;4.80;;;;;;;2.39;100.00;98647.48;106988;1251;73519;-65
2023/12/12 06:52:09;;;;;;;12.60;5.20;;;;;;;2.41;100.00;98646.48;107194;1251;68414;-62
2023/12/12 06:54:57;;;;;;;12.40;4.90;;;;;;;2.44;100.00;98654.17;107143;1251;74374;-66
2023/12/12 06:57:46;;;;;;;12.80;5.20;;;;;;;2.45;100.00;98657.38;106959;1255;59751;-64
2023/12/12 07:00:41;;;;;;;10.60;4.80;;;;;;;2.49;100.00;98666.95;106490;1251;1003083;-65
2023/12/12 07:03:30;;;;;;;12.10;4.70;;;;;;;2.49;100.00;98674.46;105935;1254;72087;-65
2023/12/12 07:06:19;;;;;;;10.50;4.60;;;;;;;2.49;100.00;98678.34;109429;1253;69425;-65
2023/12/12 07:09:12;;;;;;;10.90;4.80;;;;;;;2.49;100.00;98685.34;109523;1251;73836;-63
2023/12/12 07:11:59;;;;;;;9.80;4.20;;;;;;;2.49;100.00;98687.23;109556;1251;57543;-64
2023/12/12 07:15:07;;;;;;;9.40;4.10;;;;;;;2.50;100.00;98694.21;109374;1253;59102;-65
2023/12/12 07:17:55;;;;;;;10.20;4.30;;;;;;;2.50;100.00;98699.78;109372;1256;72078;-64
2023/12/12 07:20:43;;;;;;;11.30;4.70;;;;;;;2.52;100.00;98704.04;109486;1251;67632;-66
2023/12/12 07:23:32;;;;;;;10.20;4.40;;;;;;;2.53;100.00;98705.02;109463;1251;73846;-64
2023/12/12 07:26:24;;;;;;;10.30;4.30;;;;;;;2.55;100.00;98701.58;109502;1251;57725;-66
2023/12/12 07:29:17;;;;;;;12.90;5.40;;;;;;;2.58;100.00;98708.69;109516;1251;61326;-64
2023/12/12 07:32:06;;;;;;;12.80;5.80;;;;;;;2.62;100.00;98703.38;109503;1251;72124;-66
2023/12/12 07:34:54;;;;;;;13.60;5.80;;;;;;;2.66;100.00;98711.33;109468;1251;65420;-66
2023/12/12 07:37:43;;;;;;;13.80;6.00;;;;;;;2.70;100.00;98713.84;109494;1251;71455;-65
2023/12/12 07:40:31;;;;;;;15.10;6.80;;;;;;;2.73;100.00;98716.86;109462;1251;59608;-67
2023/12/12 07:43:19;;;;;;;11.80;5.10;;;;;;;2.74;100.00;98719.21;109477;1251;60255;-65
2023/12/12 07:46:07;;;;;;;12.40;5.50;;;;;;;2.76;100.00;98723.52;109506;1251;70730;-64
2023/12/12 07:48:56;;;;;;;12.70;5.30;;;;;;;2.76;100.00;98722.98;109410;1251;68633;-68
2023/12/12 07:51:47;;;;;;;12.70;5.90;;;;;;;2.76;100.00;98720.85;109411;1251;71638;-66
2023/12/12 07:54:36;;;;;;;12.60;6.00;;;;;;;2.78;100.00;98728.27;109611;1251;59524;-64
2023/12/12 07:57:24;;;;;;;13.80;6.30;;;;;;;2.80;100.00;98731.80;109373;1251;61156;-64
2023/12/12 08:00:14;;;;;;;12.30;5.90;;;;;;;2.84;100.00;98736.58;109389;1251;73069;-64
2023/12/12 08:03:03;;;;;;;13.70;6.00;;;;;;;2.89;100.00;98742.73;109570;1251;69019;-62
2023/12/12 08:05:52;;;;;;;9.80;4.90;;;;;;;2.93;100.00;98747.59;109505;1253;72444;-59
2023/12/12 08:08:40;;;;;;;11.40;5.20;;;;;;;2.87;100.00;98742.34;109348;1252;59186;-61
2023/12/12 08:11:29;;;;;;;12.70;5.10;;;;;;;2.91;100.00;98750.52;109498;1253;60440;-63
2023/12/12 08:14:18;;;;;;;13.50;5.30;;;;;;;2.95;100.00;98757.60;109395;1251;70869;-63
2023/12/12 08:17:07;;;;;;;12.50;5.30;;;;;;;3.00;100.00;98760.20;109306;1251;67662;-65
2023/12/12 08:19:55;;;;;;;11.60;5.20;;;;;;;3.05;100.00;98762.55;109531;1251;72669;-64
2023/12/12 08:22:43;;;;;;;12.30;5.80;;;;;;;3.05;100.00;98766.91;109186;1251;57003;-61
2023/12/12 08:25:30;;;;;;;11.90;4.90;;;;;;;3.06;100.00;98773.52;109492;1253;61520;-66
2023/12/12 08:28:18;;;;;;;12.00;5.20;;;;;;;3.02;100.00;98767.23;109544;1251;72288;-63
2023/12/12 08:31:06;;;;;;;12.10;5.30;;;;;;;3.06;100.00;98776.65;109536;1251;67538;-67
2023/12/12 08:33:57;;;;;;;13.00;5.40;;;;;;;3.04;100.00;98777.50;109501;1251;73509;-65
2023/12/12 08:36:45;;;;;;;12.40;5.50;;;;;;;3.00;100.00;98774.05;109526;1251;59887;-64
2023/12/12 08:39:33;;;;;;;12.10;6.10;;;;;;;2.97;100.00;98771.84;109412;1253;59371;-63
2023/12/12 08:42:21;;;;;;;13.00;6.00;;;;;;;2.98;100.00;98779.29;109519;1251;72249;-64
2023/12/12 08:45:09;;;;;;;11.70;5.60;;;;;;;3.00;100.00;98779.69;109389;1251;68554;-64
2023/12/12 08:47:57;;;;;;;11.90;5.70;;;;;;;3.00;100.00;98785.30;109517;1251;71069;-65
2023/12/12 08:50:47;;;;;;;9.90;4.40;;;;;;;2.99;100.00;98790.77;109485;1251;58824;-64
2023/12/12 08:53:35;;;;;;;12.20;5.60;;;;;;;2.99;100.00;98790.80;109565;1251;61023;-66
2023/12/12 08:56:22;;;;;;;10.70;4.80;;;;;;;3.01;100.00;98791.90;109533;1253;72101;-63
2023/12/12 08:59:10;;;;;;;10.40;4.60;;;;;;;3.05;100.00;98797.59;109546;1251;68765;-66
2023/12/12 09:01:58;;;;;;;10.80;4.80;;;;;;;3.10;100.00;98799.02;109533;1251;73762;-64
2023/12/12 09:04:46;;;;;;;9.20;4.50;;;;;;;3.13;100.00;98804.97;109562;1251;56898;-67
2023/12/12 09:07:34;;;;;;;10.50;4.80;;;;;;;3.14;100.00;98808.23;109552;1251;61878;-65
2023/12/12 09:10:22;;;;;;;10.60;4.60;;;;;;;3.15;100.00;98814.41;109601;1251;73406;-67
2023/12/12 09:13:10;;;;;;;10.60;4.30;;;;;;;3.15;100.00;98814.41;109564;1251;69052;-64
2023/12/12 09:15:58;;;;;;;11.20;5.20;;;;;;;3.15;100.00;98818.29;109346;1251;72435;-62
2023/12/12 09:18:46;;;;;;;10.80;4.70;;;;;;;3.18;100.00;98815.48;109516;1251;59468;-63
2023/12/12 09:21:34;;;;;;;12.10;5.10;;;;;;;3.21;100.00;98816.10;107992;1251;1014961;-65
2023/12/12 09:24:22;;;;;;;9.50;4.20;;;;;;;3.23;100.00;98814.39;109256;1251;70004;-66
2023/12/12 09:27:10;;;;;;;10.30;4.40;;;;;;;3.25;100.00;98818.52;109579;1251;66709;-64
2023/12/12 09:29:58;;;;;;;9.70;4.20;;;;;;;3.26;100.00;98819.66;109485;1251;71558;-67
2023/12/12 09:32:48;;;;;;;9.60;4.20;;;;;;;3.26;100.00;98822.11;109467;1251;57692;-67
2023/12/12 09:35:36;;;;;;;11.10;4.20;;;;;;;3.25;100.00;98821.31;109204;1251;59980;-64
2023/12/12 09:38:25;;;;;;;9.50;4.10;;;;;;;3.26;100.00;98823.86;109592;1251;71959;-63
2023/12/12 09:41:23;;;;;;;9.00;3.90;;;;;;;3.26;100.00;98823.86;109513;1251;67861;-64
2023/12/12 09:44:15;;;;;;;8.60;4.00;;;;;;;3.26;100.00;98820.92;109554;1251;73196;-61
2023/12/12 09:47:04;;;;;;;7.30;3.30;;;;;;;3.28;100.00;98823.91;109467;1251;59519;-64
2023/12/12 09:49:51;;;;;;;7.80;3.20;;;;;;;3.28;100.00;98823.04;109476;1251;59050;-66
2023/12/12 09:52:42;;;;;;;8.90;3.50;;;;;;;3.29;100.00;98827.04;109321;1253;72185;-64
2023/12/12 09:55:30;;;;;;;10.40;4.00;;;;;;;3.31;100.00;98829.33;109360;1253;67610;-62
2023/12/12 09:58:18;;;;;;;8.80;3.50;;;;;;;3.29;100.00;98825.58;109455;1252;71432;-64
2023/12/12 10:01:07;;;;;;;7.80;3.60;;;;;;;3.23;100.00;98828.41;109422;1253;58593;-64
2023/12/12 10:03:55;;;;;;;9.10;3.50;;;;;;;3.21;100.00;98830.34;109297;1253;60077;-62
2023/12/12 10:06:53;;;;;;;8.30;3.50;;;;;;;3.24;100.00;98833.33;109417;1253;71893;-67
2023/12/12 10:09:41;;;;;;;8.90;3.70;;;;;;;3.22;100.00;98833.92;109407;1252;66420;-65
2023/12/12 10:12:29;;;;;;;9.60;4.40;;;;;;;3.22;100.00;98838.30;109455;1253;70190;-67
2023/12/12 10:15:25;;;;;;;8.90;3.70;;;;;;;3.25;100.00;98842.89;109365;1253;57919;-66
2023/12/12 10:18:14;;;;;;;9.20;3.50;;;;;;;3.27;100.00;98842.09;109414;1253;58733;-64
2023/12/12 10:21:15;;;;;;;10.50;4.40;;;;;;;3.28;100.00;98841.46;109341;1252;70818;-64
2023/12/12 10:24:04;;;;;;;9.70;3.90;;;;;;;3.29;100.00;98839.46;109204;1254;68668;-63
2023/12/12 10:26:52;;;;;;;10.60;4.90;;;;;;;3.30;100.00;98841.99;109246;1254;72418;-64
2023/12/12 10:29:40;;;;;;;11.40;5.10;;;;;;;3.31;100.00;98843.34;109316;1254;57076;-62
2023/12/12 10:32:28;;;;;;;12.60;5.50;;;;;;;3.30;100.00;98841.82;109324;1254;60970;-65
2023/12/12 10:35:21;;;;;;;10.90;5.10;;;;;;;3.27;100.00;98841.01;109355;1254;71167;-63
2023/12/12 10:38:09;;;;;;;11.30;4.90;;;;;;;3.25;100.00;98836.42;109207;1254;66864;-65
2023/12/12 10:41:14;;;;;;;10.90;4.20;;;;;;;3.24;100.00;98839.23;109432;1254;73071;-64
2023/12/12 10:44:05;;;;;;;10.10;5.20;;;;;;;3.23;100.00;98842.27;109416;1254;58461;-66
2023/12/12 10:46:54;;;;;;;10.60;4.90;;;;;;;3.22;100.00;98849.23;109227;1253;60050;-65
2023/12/12 10:49:46;;;;;;;11.40;5.30;;;;;;;3.22;100.00;98847.09;109289;1253;71102;-64
2023/12/12 10:52:35;;;;;;;10.60;5.00;;;;;;;3.22;100.00;98847.45;109506;1251;68628;-62
2023/12/12 10:55:25;;;;;;;11.70;5.10;;;;;;;3.22;100.00;98851.15;109535;1252;73380;-64
2023/12/12 10:58:13;;;;;;;11.60;4.80;;;;;;;3.22;100.00;98857.64;109336;1252;57364;-64
2023/12/12 11:01:02;;;;;;;12.30;5.10;;;;;;;3.22;100.00;98856.72;109400;1252;61383;-67
2023/12/12 11:03:50;;;;;;;12.80;5.90;;;;;;;3.20;100.00;98859.48;109511;1253;72397;-64
2023/12/12 11:06:38;;;;;;;12.90;5.60;;;;;;;3.18;100.00;98862.10;109571;1253;66508;-65
2023/12/12 11:09:26;;;;;;;12.60;6.10;;;;;;;3.15;100.00;98863.55;109536;1252;73595;-66
2023/12/12 11:12:14;;;;;;;12.50;6.20;;;;;;;3.11;100.00;98863.63;109408;1252;57947;-65
2023/12/12 11:15:05;;;;;;;16.20;7.00;;;;;;;3.09;100.00;98864.61;109452;1252;57903;-64
2023/12/12 11:17:53;;;;;;;14.60;6.80;;;;;;;3.08;100.00;98866.29;109282;1252;71996;-64
2023/12/12 11:20:42;;;;;;;16.50;7.30;;;;;;;3.10;100.00;98865.44;109462;1253;68692;-64
2023/12/12 11:23:46;;;;;;;15.80;7.50;;;;;;;3.10;100.00;98871.26;109550;1252;71147;-65
2023/12/12 11:26:36;;;;;;;15.40;6.80;;;;;;;3.07;100.00;98875.05;109496;1252;57735;-65
2023/12/12 11:29:25;;;;;;;17.20;7.80;;;;;;;3.09;100.00;98877.45;109488;1252;60301;-64
2023/12/12 11:32:14;;;;;;;16.40;8.20;;;;;;;3.08;100.00;98874.70;109464;1252;70931;-65
2023/12/12 11:35:08;;;;;;;16.20;7.70;;;;;;;3.05;100.00;98873.92;109428;1252;67895;-64
2023/12/12 11:38:05;;;;;;;15.90;8.30;;;;;;;3.06;100.00;98875.33;109414;1252;71311;-63
2023/12/12 11:41:13;;;;;;;15.40;7.50;;;;;;;3.06;100.00;98876.55;109424;1253;58514;-63
2023/12/12 11:44:05;;;;;;;13.90;7.20;;;;;;;3.05;100.00;98880.14;109526;1252;59952;-62
2023/12/12 11:46:54;;;;;;;13.00;6.90;;;;;;;3.00;100.00;98889.04;109388;1253;73065;-67
2023/12/12 11:49:44;;;;;;;15.00;7.80;;;;;;;2.94;100.00;98890.47;109404;1253;67791;-63
2023/12/12 11:52:40;;;;;;;14.10;7.40;;;;;;;2.92;100.00;98891.63;109520;1251;73444;-63
2023/12/12 11:55:32;;;;;;;14.70;7.40;;;;;;;2.91;100.00;98892.39;109523;1251;57046;-66
2023/12/12 11:58:22;;;;;;;14.80;6.60;;;;;;;2.89;100.00;98893.27;109461;1251;60559;-67
2023/12/12 12:01:18;;;;;;;13.40;7.30;;;;;;;2.84;100.00;98896.01;109686;1251;70806;-67
2023/12/12 12:04:06;;;;;;;17.20;8.40;;;;;;;2.82;100.00;98895.83;109820;1251;66677;-63
2023/12/12 12:06:55;;;;;;;17.70;8.90;;;;;;;2.81;100.00;98892.88;109741;1251;72658;-62
2023/12/12 12:09:43;;;;;;;18.60;8.40;;;;;;;2.82;100.00;98899.81;107973;1251;1014684;-63
2023/12/12 12:12:31;;;;;;;18.20;8.60;;;;;;;2.85;100.00;98904.86;109573;1251;58666;-65
2023/12/12 12:15:20;;;;;;;15.00;7.00;;;;;;;2.88;100.00;98908.20;109493;1251;72232;-66
2023/12/12 12:18:25;;;;;;;13.60;7.30;;;;;;;2.88;100.00;98910.63;109553;1251;66501;-63
2023/12/12 12:21:13;;;;;;;12.50;6.50;;;;;;;2.89;100.00;98911.98;109601;1251;72392;-65
2023/12/12 12:24:03;;;;;;;11.80;5.70;;;;;;;2.90;100.00;98916.27;109490;1251;56891;-65
2023/12/12 12:26:51;;;;;;;12.30;5.30;;;;;;;2.91;100.00;98918.90;109640;1251;59232;-64
2023/12/12 12:29:39;;;;;;;11.60;5.20;;;;;;;2.89;100.00;98920.23;109495;1251;72960;-64
2023/12/12 12:32:27;;;;;;;13.00;5.10;;;;;;;2.89;100.00;98921.81;109543;1251;66624;-64
2023/12/12 12:35:14;;;;;;;9.50;3.80;;;;;;;2.89;100.00;98923.21;109524;1251;71420;-65
2023/12/12 12:38:26;;;;;;;9.60;4.10;;;;;;;2.87;100.00;98925.75;109486;1251;60170;-63
2023/12/12 12:41:24;;;;;;;8.30;4.10;;;;;;;2.88;100.00;98930.78;109471;1252;59150;-63
2023/12/12 12:44:13;;;;;;;11.70;4.10;;;;;;;2.89;100.00;98933.73;109494;1251;70726;-62
2023/12/12 12:47:01;;;;;;;13.30;4.00;;;;;;;2.86;100.00;98929.71;109392;1251;67960;-62
2023/12/12 12:49:49;;;;;;;9.40;4.50;;;;;;;2.90;100.00;98933.45;109367;1251;71520;-65
2023/12/12 12:52:37;;;;;;;10.80;4.30;;;;;;;2.93;100.00;98934.68;109535;1251;57388;-65
2023/12/12 12:55:26;;;;;;;11.30;4.00;;;;;;;2.91;100.00;98930.13;109594;1255;58694;-66
2023/12/12 12:58:15;;;;;;;9.70;3.70;;;;;;;2.86;100.00;98934.76;109538;1251;71966;-64